< < Back
Terminal Aerodrome Forecast


Current Version              Previous Versions:   1  2  3  4  5  6  7  8  9  

Terminal Aerodrome Forecast

001
FTUS42 KFFC 302335
TAFPDK
TAF
KPDK 302335Z 3100/3124 08006KT P6SM SCT050
     FM310600 08005KT P6SM SCT120
     FM311400 06009KT P6SM FEW040 SCT120
     FM311700 07009KT P6SM SCT050=

Latest METAR

248
SAUS70 KWBC 310000 RRI
MTRPDK
METAR KPDK 302353Z 10003KT 10SM CLR 28/18 A3001 RMK AO2 SLP144 T02830183
10322 20283 55006


USA.gov is the U.S. government's official web portal to all federal, state and local government web resources and services.